Asiatic Wave — 9V8790 — position and weather

sailwx.info

Track history (hours):
 
Tides and Currents Weather Stations Pressure Air Temp Water Temp Dewpoint Dewpoint Depression Visibility Wind Speed Wind Dir Waves Ship Positions

Asiatic Wave

Last reported at 2015-May-27 07:30 UTC. Time now 2015-May-29 12:23 UTC.
Position N 31°04' E 123°32'.

Length 150 m; draft 7.5 m.

Type: Ship (hazmat cat A). MMSI: 564211000.

Date/timePositionNaut miles runAvg speedWind from/ knotsBaromVisibWave heightAir tempDewpointWater temp
2015-May-27 07:30N 31°04' E 123°32'2216.2
2015-May-27 06:08N 31°04' E 123°06'1016.5
2015-May-27 05:30N 31°04' E 122°54'1616.7
2015-May-27 04:33N 31°05' E 122°35'2713.0
2015-May-27 02:29N 31°14' E 122°05'1212.4
2015-May-27 01:32N 31°16' E 121°52'1010.1
2015-May-27 00:31N 31°20' E 121°40'0 0.0
2015-May-26 23:29N 31°20' E 121°40'0 0.0
2015-May-26 22:32N 31°20' E 121°40'0 0.0
2015-May-26 21:33N 31°20' E 121°40'0 0.1
2015-May-26 20:33N 31°20' E 121°40'0 0.0
2015-May-26 18:03N 31°20' E 121°40'0 0.1
2015-May-26 17:33N 31°20' E 121°40'0 0.0
2015-May-26 16:26N 31°20' E 121°40'0 0.1
2015-May-26 15:14N 31°20' E 121°40'0 0.0
2015-May-26 14:33N 31°20' E 121°40'0 0.0
2015-May-26 13:33N 31°20' E 121°40'0 0.0
2015-May-26 12:30N 31°20' E 121°40'0 0.0
2015-May-26 11:24N 31°20' E 121°40'0 0.1
2015-May-26 10:23N 31°20' E 121°40'0 0.0
2015-May-26 09:10N 31°20' E 121°40'0 0.0
2015-May-26 08:22N 31°20' E 121°40'1 0.9
2015-May-26 07:33N 31°20' E 121°40'1110.7
2015-May-26 06:33N 31°16' E 121°52'1312.5
2015-May-26 05:33N 31°14' E 122°06'1212.4
2015-May-26 04:33N 31°07' E 122°18'10 9.9
2015-May-26 03:33N 31°07' E 122°29'1111.5
2015-May-26 02:33N 31°06' E 122°43'1212.1
2015-May-26 01:33N 31°07' E 122°57'1414.5
2015-May-26 00:33N 31°06' E 123°14'1615.7
2015-May-25 23:33N 31°05' E 123°32'1616.6
2015-May-25 22:33N 31°05' E 123°51'1616.5
2015-May-25 21:33N 31°05' E 124°11'1717.1
2015-May-25 20:33N 31°06' E 124°31'1717.0
2015-May-25 19:33N 31°06' E 124°50'1917.6
2015-May-25 18:29N 31°04' E 125°12'1717.8
2015-May-25 17:34N 31°04' E 125°32'1817.9
2015-May-25 16:32N 31°03' E 125°53'1817.8
2015-May-25 15:32N 31°02' E 126°14'1817.7
2015-May-25 14:32N 31°01' E 126°34'61316.1
2015-May-24 00:27N 34°09' E 138°07'8517.3
2015-May-23 19:33N 34°60' E 139°30'1515.1
2015-May-23 18:33N 35°09' E 139°45'1211.7
2015-May-23 17:33N 35°20' E 139°43'7 6.3
2015-May-23 16:31N 35°27' E 139°41'0 0.0
2015-May-23 15:31N 35°27' E 139°41'0 0.0
2015-May-23 14:33N 35°27' E 139°41'0 0.0
2015-May-23 13:33N 35°27' E 139°41'0 0.0
2015-May-23 12:32N 35°27' E 139°41'0 0.0
2015-May-23 11:32N 35°27' E 139°41'3 3.2
2015-May-23 10:33N 35°26' E 139°45'9 9.1
2015-May-23 09:33N 35°34' E 139°51'3 3.3
2015-May-23 08:31N 35°36' E 139°48'0 0.0
2015-May-23 07:22N 35°36' E 139°48'0 0.0
2015-May-23 06:33N 35°36' E 139°48'0 0.0
2015-May-23 05:30N 35°36' E 139°48'0 0.0
2015-May-23 04:33N 35°36' E 139°48'0 0.0
2015-May-23 03:32N 35°36' E 139°48'0 0.0
2015-May-23 02:32N 35°36' E 139°48'0 0.0
2015-May-23 01:31N 35°36' E 139°48'0 0.0
2015-May-23 00:31N 35°36' E 139°48'0 0.0
2015-May-22 23:30N 35°36' E 139°48'0 0.4
2015-May-22 22:34N 35°36' E 139°47'7 7.2
2015-May-22 21:34N 35°30' E 139°53'9 8.5
2015-May-22 20:33N 35°24' E 139°46'1010.0
2015-May-22 19:34N 35°14' E 139°47'1212.0
2015-May-22 18:34N 35°03' E 139°42'  
2015-May-20 12:25N 31°03' E 124°00'1515.5
2015-May-20 11:25N 31°03' E 123°42'1416.4
2015-May-20 10:33N 31°04' E 123°26'1717.4
2015-May-20 09:33N 31°05' E 123°05'1818.2
2015-May-20 08:33N 31°05' E 122°44'1716.7
2015-May-20 07:33N 31°06' E 122°25'1414.2
2015-May-20 06:33N 31°11' E 122°10'1414.5
2015-May-20 05:33N 31°16' E 121°53'1212.1
2015-May-20 04:33N 31°20' E 121°40'0 0.2
2015-May-20 03:34N 31°20' E 121°40'0 0.0
2015-May-20 02:32N 31°20' E 121°40'0 0.0
2015-May-20 01:32N 31°20' E 121°40'0 0.0
2015-May-20 00:31N 31°20' E 121°40'0 0.0
2015-May-19 23:31N 31°20' E 121°40'0 0.0
2015-May-19 22:33N 31°20' E 121°40'0 0.1
2015-May-19 21:31N 31°20' E 121°40'0 0.0
2015-May-19 20:32N 31°20' E 121°40'0 0.1
2015-May-19 19:34N 31°20' E 121°40'0 0.1
2015-May-19 18:32N 31°20' E 121°40'0 0.0
2015-May-19 17:32N 31°20' E 121°40'0 0.0
2015-May-19 16:33N 31°20' E 121°40'0 0.0
2015-May-19 15:33N 31°20' E 121°40'0 0.1
2015-May-19 14:31N 31°20' E 121°40'0 0.1
2015-May-19 13:32N 31°20' E 121°40'0 0.1
2015-May-19 12:31N 31°20' E 121°40'0 0.0
2015-May-19 11:33N 31°20' E 121°40'0 0.1
2015-May-19 10:32N 31°20' E 121°40'3 2.9
2015-May-19 09:33N 31°19' E 121°43'1110.9
2015-May-19 08:33N 31°16' E 121°55'1212.1
2015-May-19 07:33N 31°12' E 122°09'1110.6
2015-May-19 06:33N 31°06' E 122°19'1211.2
2015-May-19 05:29N 31°07' E 122°33'6 1.6
2015-May-19 01:29N 31°12' E 122°37'0 0.0
2015-May-18 23:10N 31°12' E 122°37'0 0.0
2015-May-18 22:33N 31°12' E 122°37'0 0.1
2015-May-18 21:33N 31°12' E 122°37'0 0.0
2015-May-18 19:23N 31°12' E 122°37'0 0.0
2015-May-18 15:07N 31°12' E 122°37'2 3.1
2015-May-18 14:34N 31°11' E 122°38'5 4.4
2015-May-18 13:32N 31°07' E 122°40'  
Track history (hours):
 
Tides and Currents Weather Stations Pressure Air Temp Water Temp Dewpoint Dewpoint Depression Visibility Wind Speed Wind Dir Waves Ship Positions

Asiatic Wave

Last reported at 2015-May-27 07:30 UTC. Time now 2015-May-29 12:23 UTC.
Position N 31°04' E 123°32'.

Length 150 m; draft 7.5 m.

Type: Ship (hazmat cat A). MMSI: 564211000.

Date/timePositionNaut miles runAvg speedWind from/ knotsBaromVisibWave heightAir tempDewpointWater temp
2015-May-27 07:30N 31°04' E 123°32'2216.2
2015-May-27 06:08N 31°04' E 123°06'1016.5
2015-May-27 05:30N 31°04' E 122°54'1616.7
2015-May-27 04:33N 31°05' E 122°35'2713.0
2015-May-27 02:29N 31°14' E 122°05'1212.4
2015-May-27 01:32N 31°16' E 121°52'1010.1
2015-May-27 00:31N 31°20' E 121°40'0 0.0
2015-May-26 23:29N 31°20' E 121°40'0 0.0
2015-May-26 22:32N 31°20' E 121°40'0 0.0
2015-May-26 21:33N 31°20' E 121°40'0 0.1
2015-May-26 20:33N 31°20' E 121°40'0 0.0
2015-May-26 18:03N 31°20' E 121°40'0 0.1
2015-May-26 17:33N 31°20' E 121°40'0 0.0
2015-May-26 16:26N 31°20' E 121°40'0 0.1
2015-May-26 15:14N 31°20' E 121°40'0 0.0
2015-May-26 14:33N 31°20' E 121°40'0 0.0
2015-May-26 13:33N 31°20' E 121°40'0 0.0
2015-May-26 12:30N 31°20' E 121°40'0 0.0
2015-May-26 11:24N 31°20' E 121°40'0 0.1
2015-May-26 10:23N 31°20' E 121°40'0 0.0
2015-May-26 09:10N 31°20' E 121°40'0 0.0
2015-May-26 08:22N 31°20' E 121°40'1 0.9
2015-May-26 07:33N 31°20' E 121°40'1110.7
2015-May-26 06:33N 31°16' E 121°52'1312.5
2015-May-26 05:33N 31°14' E 122°06'1212.4
2015-May-26 04:33N 31°07' E 122°18'10 9.9
2015-May-26 03:33N 31°07' E 122°29'1111.5
2015-May-26 02:33N 31°06' E 122°43'1212.1
2015-May-26 01:33N 31°07' E 122°57'1414.5
2015-May-26 00:33N 31°06' E 123°14'1615.7
2015-May-25 23:33N 31°05' E 123°32'1616.6
2015-May-25 22:33N 31°05' E 123°51'1616.5
2015-May-25 21:33N 31°05' E 124°11'1717.1
2015-May-25 20:33N 31°06' E 124°31'1717.0
2015-May-25 19:33N 31°06' E 124°50'1917.6
2015-May-25 18:29N 31°04' E 125°12'1717.8
2015-May-25 17:34N 31°04' E 125°32'1817.9
2015-May-25 16:32N 31°03' E 125°53'1817.8
2015-May-25 15:32N 31°02' E 126°14'1817.7
2015-May-25 14:32N 31°01' E 126°34'61316.1
2015-May-24 00:27N 34°09' E 138°07'8517.3
2015-May-23 19:33N 34°60' E 139°30'1515.1
2015-May-23 18:33N 35°09' E 139°45'1211.7
2015-May-23 17:33N 35°20' E 139°43'7 6.3
2015-May-23 16:31N 35°27' E 139°41'0 0.0
2015-May-23 15:31N 35°27' E 139°41'0 0.0
2015-May-23 14:33N 35°27' E 139°41'0 0.0
2015-May-23 13:33N 35°27' E 139°41'0 0.0
2015-May-23 12:32N 35°27' E 139°41'0 0.0
2015-May-23 11:32N 35°27' E 139°41'3 3.2
2015-May-23 10:33N 35°26' E 139°45'9 9.1
2015-May-23 09:33N 35°34' E 139°51'3 3.3
2015-May-23 08:31N 35°36' E 139°48'0 0.0
2015-May-23 07:22N 35°36' E 139°48'0 0.0
2015-May-23 06:33N 35°36' E 139°48'0 0.0
2015-May-23 05:30N 35°36' E 139°48'0 0.0
2015-May-23 04:33N 35°36' E 139°48'0 0.0
2015-May-23 03:32N 35°36' E 139°48'0 0.0
2015-May-23 02:32N 35°36' E 139°48'0 0.0
2015-May-23 01:31N 35°36' E 139°48'0 0.0
2015-May-23 00:31N 35°36' E 139°48'0 0.0
2015-May-22 23:30N 35°36' E 139°48'0 0.4
2015-May-22 22:34N 35°36' E 139°47'7 7.2
2015-May-22 21:34N 35°30' E 139°53'9 8.5
2015-May-22 20:33N 35°24' E 139°46'1010.0
2015-May-22 19:34N 35°14' E 139°47'1212.0
2015-May-22 18:34N 35°03' E 139°42'  
2015-May-20 12:25N 31°03' E 124°00'1515.5
2015-May-20 11:25N 31°03' E 123°42'1416.4
2015-May-20 10:33N 31°04' E 123°26'1717.4
2015-May-20 09:33N 31°05' E 123°05'1818.2
2015-May-20 08:33N 31°05' E 122°44'1716.7
2015-May-20 07:33N 31°06' E 122°25'1414.2
2015-May-20 06:33N 31°11' E 122°10'1414.5
2015-May-20 05:33N 31°16' E 121°53'1212.1
2015-May-20 04:33N 31°20' E 121°40'0 0.2
2015-May-20 03:34N 31°20' E 121°40'0 0.0
2015-May-20 02:32N 31°20' E 121°40'0 0.0
2015-May-20 01:32N 31°20' E 121°40'0 0.0
2015-May-20 00:31N 31°20' E 121°40'0 0.0
2015-May-19 23:31N 31°20' E 121°40'0 0.0
2015-May-19 22:33N 31°20' E 121°40'0 0.1
2015-May-19 21:31N 31°20' E 121°40'0 0.0
2015-May-19 20:32N 31°20' E 121°40'0 0.1
2015-May-19 19:34N 31°20' E 121°40'0 0.1
2015-May-19 18:32N 31°20' E 121°40'0 0.0
2015-May-19 17:32N 31°20' E 121°40'0 0.0
2015-May-19 16:33N 31°20' E 121°40'0 0.0
2015-May-19 15:33N 31°20' E 121°40'0 0.1
2015-May-19 14:31N 31°20' E 121°40'0 0.1
2015-May-19 13:32N 31°20' E 121°40'0 0.1
2015-May-19 12:31N 31°20' E 121°40'0 0.0
2015-May-19 11:33N 31°20' E 121°40'0 0.1
2015-May-19 10:32N 31°20' E 121°40'3 2.9
2015-May-19 09:33N 31°19' E 121°43'1110.9
2015-May-19 08:33N 31°16' E 121°55'1212.1
2015-May-19 07:33N 31°12' E 122°09'1110.6
2015-May-19 06:33N 31°06' E 122°19'1211.2
2015-May-19 05:29N 31°07' E 122°33'6 1.6
2015-May-19 01:29N 31°12' E 122°37'0 0.0
2015-May-18 23:10N 31°12' E 122°37'0 0.0
2015-May-18 22:33N 31°12' E 122°37'0 0.1
2015-May-18 21:33N 31°12' E 122°37'0 0.0
2015-May-18 19:23N 31°12' E 122°37'0 0.0
2015-May-18 15:07N 31°12' E 122°37'2 3.1
2015-May-18 14:34N 31°11' E 122°38'5 4.4
2015-May-18 13:32N 31°07' E 122°40'  

Dump ship's entire track history